Time;durP1;ratioP1;P1;durP2;ratioP2;P2;SDS_P1;SDS_P2;PMS_P1;PMS_P2;Temp;Humidity;BMP_temperature;BMP_pressure;BME280_temperature;BME280_humidity;BME280_pressure;Samples;Min_cycle;Max_cycle;Signal;HPM_P1;HPM_P2
2022/10/20 00:01:18;;;;;;;5.70;2.90;;;6.70;93.10;;;;;;5054775;28;20402;-73
2022/10/20 00:03:45;;;;;;;2.90;2.70;;;6.70;98.90;;;;;;5052769;28;20437;-74
2022/10/20 00:06:17;;;;;;;2.80;2.60;;;6.80;97.70;;;;;;5054737;28;20433;-74
2022/10/20 00:08:44;;;;;;;2.43;2.33;;;6.80;99.90;;;;;;5070511;28;20405;-70
2022/10/20 00:11:12;;;;;;;2.23;2.03;;;6.80;99.90;;;;;;5054691;28;20921;-70
2022/10/20 00:13:39;;;;;;;3.07;2.80;;;6.80;99.90;;;;;;5069230;28;20437;-76
2022/10/20 00:16:05;;;;;;;3.10;2.90;;;6.80;99.90;;;;;;5054456;28;20760;-74
2022/10/20 00:18:31;;;;;;;3.50;3.20;;;6.80;99.90;;;;;;5053243;28;20492;-74
2022/10/20 00:20:57;;;;;;;4.10;3.80;;;6.90;99.90;;;;;;5054519;28;20954;-74
2022/10/20 00:23:23;;;;;;;4.80;3.47;;;6.90;99.90;;;;;;5054425;28;20209;-70
2022/10/20 00:25:59;;;;;;;5.80;4.10;;;6.90;99.90;;;;;;5053531;28;20902;-72
2022/10/20 00:28:24;;;;;;;8.70;4.57;;;6.90;99.90;;;;;;5066538;28;20178;-74
2022/10/20 00:30:53;;;;;;;7.30;5.13;;;6.90;99.90;;;;;;5074428;28;20488;-73
2022/10/20 00:33:19;;;;;;;5.43;4.93;;;6.90;99.90;;;;;;5074239;28;20528;-75
2022/10/20 00:35:44;;;;;;;8.33;5.40;;;7.00;99.90;;;;;;5072928;28;20417;-73
2022/10/20 00:38:10;;;;;;;6.20;5.00;;;7.00;99.90;;;;;;5073987;28;20202;-70
2022/10/20 00:40:36;;;;;;;9.37;5.90;;;7.00;99.90;;;;;;5064893;28;20171;-70
2022/10/20 00:43:02;;;;;;;8.57;6.20;;;7.00;99.90;;;;;;5053227;28;20186;-71
2022/10/20 00:45:28;;;;;;;8.20;7.40;;;7.00;99.90;;;;;;5052207;28;20240;-74
2022/10/20 00:48:03;;;;;;;7.00;5.53;;;7.00;99.90;;;;;;5054148;28;20497;-73
2022/10/20 00:50:33;;;;;;;12.70;5.73;;;7.00;99.90;;;;;;5054099;28;20451;-70
2022/10/20 00:53:00;;;;;;;7.63;5.47;;;7.00;99.90;;;;;;5069349;28;20811;-74
2022/10/20 00:55:29;;;;;;;7.60;6.30;;;7.00;99.90;;;;;;5060480;28;20455;-70
2022/10/20 00:57:57;;;;;;;7.40;6.33;;;6.90;99.90;;;;;;5073647;28;20444;-73
2022/10/20 01:00:24;;;;;;;11.30;6.50;;;6.90;99.90;;;;;;5073869;28;20367;-71
2022/10/20 01:02:51;;;;;;;11.23;6.23;;;6.90;99.90;;;;;;5072785;28;20780;-73
2022/10/20 01:05:17;;;;;;;6.60;5.33;;;6.90;99.90;;;;;;5072667;28;20425;-70
2022/10/20 01:07:42;;;;;;;8.27;6.03;;;6.90;99.90;;;;;;5073819;28;20396;-70
2022/10/20 01:10:10;;;;;;;12.73;6.27;;;6.80;99.90;;;;;;5068160;28;20926;-70
2022/10/20 01:13:01;;;;;;;10.60;6.40;;;6.80;99.90;;;;;;5053679;28;20175;-74
2022/10/20 01:15:42;;;;;;;9.40;6.20;;;6.90;99.90;;;;;;5052672;28;20430;-70
2022/10/20 01:18:23;;;;;;;6.20;5.60;;;6.90;99.90;;;;;;5053500;28;20445;-70
2022/10/20 01:21:03;;;;;;;8.70;6.60;;;6.90;99.90;;;;;;5069238;28;20444;-70
2022/10/20 01:23:53;;;;;;;8.13;6.47;;;6.90;99.90;;;;;;5061122;28;20428;-73
2022/10/20 01:26:49;;;;;;;7.60;6.90;;;6.90;99.90;;;;;;5073335;28;20420;-73
2022/10/20 01:29:35;;;;;;;7.87;5.50;;;6.90;99.90;;;;;;5071967;28;20488;-73
2022/10/20 01:32:31;;;;;;;11.70;5.57;;;6.90;99.90;;;;;;5072175;28;20408;-70
2022/10/20 01:35:16;;;;;;;9.43;5.90;;;7.00;99.90;;;;;;5071229;28;20407;-74
2022/10/20 01:37:50;;;;;;;10.80;6.33;;;7.00;99.90;;;;;;5073319;28;20440;-73
2022/10/20 01:40:29;;;;;;;7.23;5.50;;;7.00;99.90;;;;;;5073312;28;20462;-75
2022/10/20 01:42:58;;;;;;;7.30;6.37;;;7.00;99.90;;;;;;5072188;28;20422;-70
2022/10/20 01:45:28;;;;;;;7.50;5.70;;;7.10;99.90;;;;;;5071966;28;20417;-74
2022/10/20 01:47:57;;;;;;;9.83;5.10;;;7.10;99.90;;;;;;5072410;28;20504;-70
2022/10/20 01:50:23;;;;;;;10.93;7.00;;;7.10;99.90;;;;;;5072328;28;20404;-71
2022/10/20 01:52:53;;;;;;;6.50;5.60;;;7.00;99.90;;;;;;5072168;28;20436;-74
2022/10/20 01:55:19;;;;;;;5.60;5.20;;;7.00;99.90;;;;;;5071193;28;20437;-72
2022/10/20 01:57:53;;;;;;;6.50;5.40;;;7.00;99.90;;;;;;5073190;28;20447;-73
2022/10/20 02:00:19;;;;;;;6.53;5.70;;;7.00;99.90;;;;;;5072173;28;20219;-70
2022/10/20 02:03:21;;;;;;;7.53;6.57;;;6.90;99.90;;;;;;5071498;28;20851;-72
2022/10/20 02:06:03;;;;;;;7.10;5.70;;;6.90;99.90;;;;;;5071277;28;20652;-71
2022/10/20 02:09:19;;;;;;;8.70;6.10;;;6.90;99.90;;;;;;5071830;28;20412;-73
2022/10/20 02:11:57;;;;;;;9.70;5.40;;;6.90;99.90;;;;;;5063672;28;20427;-71
2022/10/20 02:14:23;;;;;;;7.70;6.80;;;6.90;99.90;;;;;;5076182;28;20399;-71
2022/10/20 02:17:03;;;;;;;7.30;6.40;;;6.90;99.90;;;;;;5075695;28;20460;-75
2022/10/20 02:19:33;;;;;;;7.23;6.60;;;6.90;99.90;;;;;;5075863;28;20170;-70
2022/10/20 02:22:00;;;;;;;7.60;6.07;;;6.90;99.90;;;;;;5076476;28;20396;-73
2022/10/20 02:24:30;;;;;;;7.13;6.43;;;6.90;99.90;;;;;;5074796;28;20430;-73
2022/10/20 02:27:01;;;;;;;7.70;6.97;;;6.90;99.90;;;;;;5076511;28;20943;-73
2022/10/20 02:29:31;;;;;;;6.13;5.43;;;6.90;99.90;;;;;;5071456;28;20439;-74
2022/10/20 02:31:57;;;;;;;6.80;6.20;;;6.90;99.90;;;;;;5056721;28;20805;-71
2022/10/20 02:34:26;;;;;;;7.60;5.80;;;6.80;99.90;;;;;;5055714;28;20407;-71
2022/10/20 02:36:56;;;;;;;5.93;5.43;;;6.80;99.90;;;;;;5071866;28;20465;-71
2022/10/20 02:39:22;;;;;;;11.20;7.30;;;6.70;99.90;;;;;;5054809;28;20463;-71
2022/10/20 02:41:47;;;;;;;7.37;5.17;;;6.70;99.90;;;;;;5072159;28;20397;-71
2022/10/20 02:44:13;;;;;;;5.07;4.60;;;6.70;99.90;;;;;;5056923;28;20179;-70
2022/10/20 02:46:39;;;;;;;7.80;5.70;;;6.60;99.90;;;;;;5056526;28;20258;-70
2022/10/20 02:49:04;;;;;;;6.90;5.37;;;6.60;99.90;;;;;;5056412;28;20163;-73
2022/10/20 02:51:30;;;;;;;5.80;5.20;;;6.60;99.90;;;;;;5054932;28;20501;-71
2022/10/20 02:53:56;;;;;;;6.00;5.50;;;6.50;99.90;;;;;;5055483;28;20171;-74
2022/10/20 02:56:21;;;;;;;5.83;5.33;;;6.50;99.90;;;;;;5056184;28;20202;-74
2022/10/20 02:58:48;;;;;;;5.57;5.07;;;6.50;99.90;;;;;;5071684;28;20185;-70
2022/10/20 03:01:13;;;;;;;5.50;5.10;;;6.40;99.90;;;;;;5074819;28;20202;-74
2022/10/20 03:03:39;;;;;;;7.67;5.40;;;6.40;99.90;;;;;;5075089;28;20505;-75
2022/10/20 03:06:13;;;;;;;4.93;4.47;;;6.40;99.90;;;;;;5075883;28;20554;-73
2022/10/20 03:08:39;;;;;;;5.30;4.87;;;6.40;99.90;;;;;;5074788;28;20202;-70
2022/10/20 03:11:04;;;;;;;5.60;5.10;;;6.40;99.90;;;;;;5074593;28;20517;-74
2022/10/20 03:13:30;;;;;;;5.80;5.17;;;6.40;99.90;;;;;;5074680;28;20185;-75
2022/10/20 03:15:56;;;;;;;5.50;4.60;;;6.40;99.90;;;;;;5075124;28;20442;-73
2022/10/20 03:18:22;;;;;;;6.57;4.80;;;6.40;99.90;;;;;;5075613;28;20483;-73
2022/10/20 03:20:52;;;;;;;6.03;5.47;;;6.40;99.90;;;;;;5074256;28;20645;-70
2022/10/20 03:23:17;;;;;;;7.80;4.30;;;6.40;99.90;;;;;;5075663;28;20165;-71
2022/10/20 03:25:43;;;;;;;4.90;4.40;;;6.40;99.90;;;;;;5064474;28;20445;-73
2022/10/20 03:28:09;;;;;;;6.97;5.10;;;6.40;99.90;;;;;;5055741;28;20203;-70
2022/10/20 03:30:34;;;;;;;4.67;4.00;;;6.30;99.90;;;;;;5055645;28;20174;-74
2022/10/20 03:33:00;;;;;;;5.00;4.50;;;6.30;99.90;;;;;;5071198;28;20167;-70
2022/10/20 03:35:25;;;;;;;6.93;5.53;;;6.40;99.90;;;;;;5069522;28;20191;-73
2022/10/20 03:37:51;;;;;;;4.57;4.20;;;6.30;99.90;;;;;;5055126;28;20552;-74
2022/10/20 03:40:17;;;;;;;5.37;4.97;;;6.30;99.90;;;;;;5070548;28;20175;-73
2022/10/20 03:42:43;;;;;;;7.20;6.70;;;6.30;99.90;;;;;;5071045;28;20205;-70
2022/10/20 03:45:09;;;;;;;7.60;4.67;;;6.30;99.90;;;;;;5054362;28;20579;-70
2022/10/20 03:47:34;;;;;;;4.80;4.10;;;6.30;99.90;;;;;;5055108;28;20639;-70
2022/10/20 03:50:00;;;;;;;5.13;4.40;;;6.30;99.90;;;;;;5074047;28;20460;-71
2022/10/20 03:52:25;;;;;;;9.43;4.17;;;6.30;99.90;;;;;;5075278;28;20178;-70
2022/10/20 03:54:51;;;;;;;4.97;4.47;;;6.30;99.90;;;;;;5071194;28;20182;-70
2022/10/20 03:57:18;;;;;;;5.83;5.23;;;6.30;99.90;;;;;;5075009;28;20194;-74
2022/10/20 03:59:44;;;;;;;7.23;4.47;;;6.30;99.90;;;;;;5074862;28;20162;-73
2022/10/20 04:02:32;;;;;;;5.67;5.17;;;6.30;99.90;;;;;;5074952;28;20397;-73
2022/10/20 04:04:58;;;;;;;4.23;3.83;;;6.20;99.90;;;;;;5073954;28;20171;-73
2022/10/20 04:07:23;;;;;;;6.43;5.07;;;6.20;99.90;;;;;;5069431;28;20441;-72
2022/10/20 04:09:49;;;;;;;9.30;4.77;;;6.20;99.90;;;;;;5054813;28;20762;-71
2022/10/20 04:12:15;;;;;;;6.10;4.90;;;6.10;99.90;;;;;;5054910;28;20592;-71
2022/10/20 04:14:40;;;;;;;4.47;4.10;;;6.10;99.90;;;;;;5053415;28;20167;-70
2022/10/20 04:17:06;;;;;;;3.90;3.60;;;6.10;99.90;;;;;;5054651;28;20213;-71
2022/10/20 04:19:32;;;;;;;5.60;4.67;;;6.10;99.90;;;;;;5054672;28;20250;-74
2022/10/20 04:21:57;;;;;;;4.80;4.50;;;6.10;99.90;;;;;;5058496;28;20232;-73
2022/10/20 04:24:23;;;;;;;5.07;4.57;;;6.10;99.90;;;;;;5073711;28;20174;-70
2022/10/20 04:26:48;;;;;;;3.60;3.40;;;6.00;99.90;;;;;;5074465;28;20190;-70
2022/10/20 04:29:14;;;;;;;10.40;3.83;;;6.00;99.90;;;;;;5073433;28;20227;-73
2022/10/20 04:31:40;;;;;;;3.87;3.67;;;6.00;99.90;;;;;;5073551;28;20173;-71
2022/10/20 04:34:05;;;;;;;4.27;3.87;;;6.00;99.90;;;;;;5072134;28;20178;-74
2022/10/20 04:36:31;;;;;;;4.00;3.70;;;6.00;99.90;;;;;;5072451;28;20202;-70
2022/10/20 04:38:57;;;;;;;4.20;3.90;;;5.90;99.90;;;;;;5073220;28;20161;-70
2022/10/20 04:41:22;;;;;;;5.03;4.30;;;6.00;99.90;;;;;;5073343;28;20158;-74
2022/10/20 04:43:52;;;;;;;4.10;3.70;;;6.00;99.90;;;;;;5072091;28;20177;-71
2022/10/20 04:46:18;;;;;;;4.57;4.27;;;6.00;99.90;;;;;;5072633;28;20574;-72
2022/10/20 04:48:44;;;;;;;3.70;3.40;;;6.00;99.90;;;;;;5072820;28;20967;-74
2022/10/20 04:51:12;;;;;;;5.33;3.10;;;6.00;99.90;;;;;;5073870;28;20526;-73
2022/10/20 04:53:38;;;;;;;3.90;3.47;;;6.00;99.90;;;;;;5072087;28;20440;-76
2022/10/20 04:56:06;;;;;;;4.17;3.80;;;6.10;99.90;;;;;;5073824;28;20420;-74
2022/10/20 04:58:33;;;;;;;5.30;4.30;;;6.00;99.90;;;;;;5074012;28;20401;-70
2022/10/20 05:01:05;;;;;;;3.77;3.57;;;6.00;99.90;;;;;;5070868;28;20400;-75
2022/10/20 05:03:31;;;;;;;3.73;2.90;;;6.00;99.90;;;;;;5053488;28;20418;-74
2022/10/20 05:06:17;;;;;;;3.50;3.20;;;6.00;99.90;;;;;;5052083;28;20433;-75
2022/10/20 05:08:45;;;;;;;3.40;3.20;;;6.00;99.90;;;;;;5053309;28;20627;-71
2022/10/20 05:11:12;;;;;;;6.70;3.60;;;6.00;99.90;;;;;;5053792;28;20372;-73
2022/10/20 05:13:38;;;;;;;6.20;3.50;;;6.00;99.90;;;;;;5051637;28;20416;-76
2022/10/20 05:16:05;;;;;;;4.03;3.73;;;5.90;99.90;;;;;;5055390;28;20452;-70
2022/10/20 05:18:31;;;;;;;3.90;3.70;;;5.90;99.90;;;;;;5073515;28;20405;-70
2022/10/20 05:20:57;;;;;;;4.03;3.73;;;5.90;99.90;;;;;;5073626;28;20393;-73
2022/10/20 05:23:23;;;;;;;3.67;3.37;;;5.80;99.90;;;;;;5073438;28;20892;-74
2022/10/20 05:25:48;;;;;;;4.67;3.00;;;5.80;99.90;;;;;;5071156;28;20475;-73
2022/10/20 05:28:14;;;;;;;3.17;2.87;;;5.80;99.90;;;;;;5072008;28;20413;-71
2022/10/20 05:30:40;;;;;;;3.40;3.20;;;5.80;99.90;;;;;;5072178;28;20273;-70
2022/10/20 05:33:05;;;;;;;4.07;3.80;;;5.70;99.90;;;;;;5073334;28;20591;-73
2022/10/20 05:35:31;;;;;;;5.17;4.77;;;5.70;99.90;;;;;;5071362;28;20284;-71
2022/10/20 05:37:57;;;;;;;4.00;3.67;;;5.70;99.90;;;;;;5073256;28;20277;-75
2022/10/20 05:40:23;;;;;;;4.17;3.87;;;5.70;99.90;;;;;;5073153;28;20392;-71
2022/10/20 05:42:49;;;;;;;3.60;3.40;;;5.70;99.90;;;;;;5073238;28;20174;-69
2022/10/20 05:45:15;;;;;;;4.93;3.80;;;5.70;99.90;;;;;;5057549;28;20481;-74
2022/10/20 05:47:43;;;;;;;3.20;3.00;;;5.60;99.90;;;;;;5068925;28;20452;-69
2022/10/20 05:50:09;;;;;;;4.50;3.50;;;5.60;99.90;;;;;;5053348;28;20490;-74
2022/10/20 05:52:35;;;;;;;4.00;3.67;;;5.60;99.90;;;;;;5074000;28;20515;-69
2022/10/20 05:55:02;;;;;;;11.10;3.40;;;5.60;99.90;;;;;;5071906;28;20900;-68
2022/10/20 05:57:27;;;;;;;4.00;3.70;;;5.60;99.90;;;;;;5071595;28;20452;-68
2022/10/20 05:59:53;;;;;;;3.87;3.67;;;5.60;99.90;;;;;;5072917;28;20765;-74
2022/10/20 06:02:19;;;;;;;3.53;2.80;;;5.60;99.90;;;;;;5067812;28;20539;-74
2022/10/20 06:04:45;;;;;;;4.33;3.10;;;5.70;99.90;;;;;;5051632;28;20167;-72
2022/10/20 06:07:10;;;;;;;3.40;3.10;;;5.70;99.90;;;;;;5052777;28;20428;-69
2022/10/20 06:09:37;;;;;;;5.03;4.60;;;5.70;99.90;;;;;;5053206;28;20202;-74
2022/10/20 06:12:04;;;;;;;6.30;5.73;;;5.70;99.90;;;;;;5052943;28;20186;-73
2022/10/20 06:14:29;;;;;;;24.70;15.60;;;5.70;99.90;;;;;;5051892;28;20404;-74
2022/10/20 06:16:56;;;;;;;11.10;8.70;;;5.80;99.90;;;;;;5057539;28;20467;-69
2022/10/20 06:19:23;;;;;;;43.53;25.77;;;5.80;99.90;;;;;;5072889;28;20171;-74
2022/10/20 06:21:50;;;;;;;16.57;14.93;;;5.80;99.90;;;;;;5072721;28;20439;-74
2022/10/20 06:24:16;;;;;;;14.50;7.80;;;5.90;99.90;;;;;;5070558;28;20523;-69
2022/10/20 06:26:42;;;;;;;19.80;13.60;;;5.90;99.90;;;;;;5060232;28;20964;-73
2022/10/20 06:29:13;;;;;;;18.20;11.60;;;6.00;99.90;;;;;;5072050;28;20440;-74
2022/10/20 06:31:41;;;;;;;9.40;8.50;;;6.00;99.90;;;;;;5073026;28;20829;-74
2022/10/20 06:34:14;;;;;;;6.40;5.87;;;5.90;99.90;;;;;;5071937;28;20408;-69
2022/10/20 06:36:42;;;;;;;10.03;5.57;;;6.00;99.90;;;;;;5072460;28;20448;-69
2022/10/20 06:39:13;;;;;;;6.23;5.63;;;6.00;99.90;;;;;;5072672;28;20454;-69
2022/10/20 06:41:38;;;;;;;4.67;4.37;;;6.10;99.90;;;;;;5055521;28;20425;-69
2022/10/20 06:44:05;;;;;;;6.27;5.73;;;6.10;99.90;;;;;;5051666;28;20452;-69
2022/10/20 06:46:34;;;;;;;8.47;6.30;;;6.20;99.90;;;;;;5052591;28;20449;-74
2022/10/20 06:49:02;;;;;;;4.90;3.53;;;6.30;99.90;;;;;;5052485;28;20442;-69
2022/10/20 06:51:28;;;;;;;3.73;3.53;;;6.30;99.90;;;;;;5052508;28;20433;-68
2022/10/20 06:53:54;;;;;;;4.33;4.03;;;6.40;99.90;;;;;;5051694;28;20405;-74
2022/10/20 06:56:24;;;;;;;4.17;3.43;;;6.40;99.90;;;;;;5054848;28;20945;-68
2022/10/20 06:58:52;;;;;;;3.83;3.07;;;6.50;99.90;;;;;;5055714;28;20167;-74
2022/10/20 07:01:18;;;;;;;3.93;3.63;;;6.50;99.90;;;;;;5056110;28;20409;-75
2022/10/20 07:03:46;;;;;;;3.30;3.10;;;6.50;99.90;;;;;;5053888;28;20437;-72
2022/10/20 07:06:27;;;;;;;3.53;3.30;;;6.60;99.90;;;;;;5055934;28;20190;-74
2022/10/20 07:08:55;;;;;;;8.50;3.90;;;6.60;99.90;;;;;;5069427;28;20428;-74
2022/10/20 07:11:22;;;;;;;3.90;3.50;;;6.70;99.90;;;;;;5075972;28;20476;-74
2022/10/20 07:13:48;;;;;;;3.83;3.40;;;6.80;99.90;;;;;;5075051;28;20893;-71
2022/10/20 07:16:17;;;;;;;4.43;4.03;;;6.80;99.90;;;;;;5074701;28;20429;-74
2022/10/20 07:18:43;;;;;;;4.57;4.17;;;6.90;99.90;;;;;;5073437;28;20423;-71
2022/10/20 07:21:12;;;;;;;9.60;3.13;;;7.00;99.90;;;;;;5075726;28;20410;-74
2022/10/20 07:23:38;;;;;;;4.43;4.03;;;7.10;99.90;;;;;;5072453;28;20220;-77
2022/10/20 07:26:05;;;;;;;3.97;3.63;;;7.20;99.90;;;;;;5075451;28;20780;-71
2022/10/20 07:28:31;;;;;;;8.03;3.20;;;7.20;99.90;;;;;;5075679;28;20393;-72
2022/10/20 07:31:02;;;;;;;12.87;4.77;;;7.30;99.90;;;;;;5075585;28;20398;-71
2022/10/20 07:33:28;;;;;;;3.43;3.23;;;7.40;99.90;;;;;;5075108;28;20398;-75
2022/10/20 07:35:53;;;;;;;4.80;3.10;;;7.50;99.90;;;;;;5065782;28;20445;-71
2022/10/20 07:38:19;;;;;;;3.50;2.97;;;7.60;99.90;;;;;;5055504;28;20282;-71
2022/10/20 07:40:45;;;;;;;7.90;3.50;;;7.70;99.90;;;;;;5055409;28;20641;-71
2022/10/20 07:43:10;;;;;;;7.13;4.70;;;7.70;99.90;;;;;;5055187;28;20182;-72
2022/10/20 07:45:36;;;;;;;11.60;3.87;;;7.80;99.90;;;;;;5054280;28;20186;-71
2022/10/20 07:48:03;;;;;;;3.57;3.30;;;7.90;99.90;;;;;;5055400;28;20636;-73
2022/10/20 07:50:29;;;;;;;8.27;3.40;;;8.00;99.90;;;;;;5061194;28;20174;-73
2022/10/20 07:52:54;;;;;;;4.10;3.33;;;8.10;99.90;;;;;;5074803;28;20409;-74
2022/10/20 07:55:20;;;;;;;3.20;3.00;;;8.20;99.90;;;;;;5074106;28;20448;-74
2022/10/20 07:57:46;;;;;;;2.63;2.50;;;8.30;99.90;;;;;;5075061;28;20278;-70
2022/10/20 08:00:13;;;;;;;4.17;3.20;;;8.40;99.90;;;;;;5075073;28;20639;-71
2022/10/20 08:02:39;;;;;;;2.97;2.63;;;8.50;99.90;;;;;;5063548;28;20450;-74
2022/10/20 08:05:06;;;;;;;9.43;3.67;;;8.50;99.90;;;;;;5054148;28;20873;-71
2022/10/20 08:07:32;;;;;;;3.67;3.13;;;8.60;99.90;;;;;;5054066;28;20467;-73
2022/10/20 08:09:58;;;;;;;3.17;2.97;;;8.70;99.90;;;;;;5054755;28;20387;-74
2022/10/20 08:12:24;;;;;;;6.47;3.30;;;8.80;99.90;;;;;;5054381;28;20391;-74
2022/10/20 08:14:50;;;;;;;3.03;2.80;;;9.00;99.90;;;;;;5053881;28;20182;-74
2022/10/20 08:17:17;;;;;;;6.00;2.73;;;9.00;99.90;;;;;;5054394;28;20725;-72
2022/10/20 08:19:43;;;;;;;4.90;2.87;;;9.10;99.90;;;;;;5053303;28;20418;-76
2022/10/20 08:22:09;;;;;;;4.93;3.20;;;9.20;99.90;;;;;;5054646;28;20465;-71
2022/10/20 08:24:35;;;;;;;2.80;2.60;;;9.30;99.90;;;;;;5053719;28;20493;-70
2022/10/20 08:27:01;;;;;;;7.33;2.77;;;9.40;99.90;;;;;;5054437;28;20516;-72
2022/10/20 08:29:26;;;;;;;3.20;3.00;;;9.40;99.90;;;;;;5053716;28;20812;-74
2022/10/20 08:31:52;;;;;;;2.53;2.33;;;9.50;99.90;;;;;;5074087;28;20439;-74
2022/10/20 08:34:18;;;;;;;2.40;2.10;;;9.60;99.90;;;;;;5073574;28;20638;-74
2022/10/20 08:36:43;;;;;;;3.30;2.53;;;9.70;99.90;;;;;;5074196;28;20198;-72
2022/10/20 08:39:09;;;;;;;7.73;2.43;;;9.80;99.40;;;;;;5068997;28;20565;-74
2022/10/20 08:41:42;;;;;;;2.80;2.60;;;9.90;93.80;;;;;;5054304;28;20179;-74
2022/10/20 08:44:16;;;;;;;13.17;2.60;;;10.10;92.10;;;;;;5068984;28;20175;-72
2022/10/20 08:46:42;;;;;;;2.60;2.40;;;10.10;91.90;;;;;;5053844;28;20436;-75
2022/10/20 08:49:18;;;;;;;2.97;2.27;;;10.30;70.30;;;;;;5053958;28;20849;-74
2022/10/20 08:51:44;;;;;;;8.50;2.23;;;10.40;84.50;;;;;;5054001;28;20186;-74
2022/10/20 08:54:13;;;;;;;11.23;2.80;;;10.50;22.90;;;;;;5052990;28;20387;-74
2022/10/20 08:56:40;;;;;;;11.53;2.37;;;10.50;4.40;;;;;;5053950;28;20430;-74
2022/10/20 08:59:34;;;;;;;5.97;2.10;;;10.60;8.80;;;;;;5053955;28;20451;-73
2022/10/20 09:02:02;;;;;;;2.40;2.20;;;10.70;88.20;;;;;;5053927;28;20372;-75
2022/10/20 09:04:40;;;;;;;7.13;3.10;;;10.70;91.80;;;;;;5053240;28;20404;-74
2022/10/20 09:07:25;;;;;;;2.57;2.20;;;10.80;25.50;;;;;;5053340;28;20434;-74
2022/10/20 09:09:52;;;;;;;2.23;2.13;;;10.80;30.70;;;;;;5054276;28;20404;-76
2022/10/20 09:12:18;;;;;;;2.90;2.30;;;11.00;45.80;;;;;;5053751;28;20383;-73
2022/10/20 09:14:44;;;;;;;5.00;2.40;;;11.10;35.00;;;;;;5052767;28;20418;-73
2022/10/20 09:17:17;;;;;;;3.47;1.83;;;11.30;42.90;;;;;;5053529;28;20515;-75
2022/10/20 09:19:53;;;;;;;10.00;2.53;;;11.30;1.00;;;;;;5061353;28;20190;-73
2022/10/20 09:22:21;;;;;;;1.77;1.67;;;11.40;1.00;;;;;;5073576;28;20374;-72
2022/10/20 09:24:49;;;;;;;4.03;2.40;;;11.50;1.00;;;;;;5072014;28;20371;-73
2022/10/20 09:27:22;;;;;;;4.93;2.67;;;11.50;1.00;;;;;;5073469;28;20423;-70
2022/10/20 09:29:47;;;;;;;2.53;2.07;;;11.60;1.00;;;;;;5067172;28;20468;-74
2022/10/20 09:32:21;;;;;;;6.00;2.67;;;11.60;1.00;;;;;;5053338;28;20392;-76
2022/10/20 09:34:47;;;;;;;2.10;2.00;;;11.60;1.00;;;;;;5052494;28;20175;-73
2022/10/20 09:37:17;;;;;;;2.80;2.30;;;11.60;1.00;;;;;;5068784;28;20455;-72
2022/10/20 09:39:46;;;;;;;2.70;1.80;;;11.60;1.00;;;;;;5053296;28;20372;-73
2022/10/20 09:42:14;;;;;;;2.40;2.30;;;11.70;1.00;;;;;;5052477;28;20397;-72
2022/10/20 09:45:03;;;;;;;2.33;2.00;;;11.80;1.00;;;;;;5052318;28;20372;-74
2022/10/20 09:47:29;;;;;;;5.10;1.93;;;11.80;1.00;;;;;;5053238;28;20459;-74
2022/10/20 09:50:04;;;;;;;3.87;2.17;;;11.90;1.00;;;;;;5060865;28;20440;-74
2022/10/20 09:52:33;;;;;;;2.63;2.23;;;12.00;1.00;;;;;;5072995;28;20407;-74
2022/10/20 09:55:03;;;;;;;2.43;2.20;;;12.10;1.00;;;;;;5072326;28;20859;-74
2022/10/20 09:57:30;;;;;;;5.23;2.50;;;12.20;1.00;;;;;;5071514;28;20442;-74
2022/10/20 09:59:56;;;;;;;2.60;2.40;;;12.30;1.00;;;;;;5073048;28;20877;-73
2022/10/20 10:02:22;;;;;;;3.67;2.40;;;12.40;1.00;;;;;;5073177;28;20423;-75
2022/10/20 10:04:52;;;;;;;2.83;2.63;;;12.50;1.00;;;;;;5071066;28;20850;-72
2022/10/20 10:07:21;;;;;;;3.03;2.83;;;12.50;1.00;;;;;;5073296;28;20177;-73
2022/10/20 10:09:58;;;;;;;2.30;2.10;;;12.80;1.00;;;;;;5063250;28;20415;-72
2022/10/20 10:12:26;;;;;;;2.40;2.07;;;13.00;1.00;;;;;;5053075;28;20391;-77
2022/10/20 10:15:06;;;;;;;2.67;2.47;;;13.10;1.00;;;;;;5053337;28;20896;-73
2022/10/20 10:17:40;;;;;;;2.20;2.10;;;13.40;1.00;;;;;;5056663;28;20438;-75
2022/10/20 10:20:32;;;;;;;2.80;2.60;;;13.50;1.00;;;;;;5072791;28;20461;-73
2022/10/20 10:23:28;;;;;;;3.07;2.37;;;13.50;1.00;;;;;;5073013;28;20375;-72
2022/10/20 10:25:54;;;;;;;2.40;2.20;;;13.20;1.00;;;;;;5059885;28;20449;-72
2022/10/20 10:28:28;;;;;;;10.40;2.70;;;13.10;1.00;;;;;;5072954;28;20793;-74
2022/10/20 10:31:08;;;;;;;2.83;2.63;;;13.00;1.00;;;;;;5068974;28;20812;-73
2022/10/20 10:33:33;;;;;;;8.03;3.27;;;12.70;1.00;;;;;;5076325;28;20451;-73
2022/10/20 10:36:10;;;;;;;2.57;2.37;;;12.60;1.00;;;;;;5071317;28;20454;-72
2022/10/20 10:38:36;;;;;;;2.20;2.00;;;12.60;1.00;;;;;;5055812;28;20178;-73
2022/10/20 10:41:22;;;;;;;4.50;2.80;;;12.70;1.00;;;;;;5056511;28;20894;-73
2022/10/20 10:44:01;;;;;;;6.40;2.13;;;12.80;1.00;;;;;;5055693;28;20401;-70
2022/10/20 10:46:53;;;;;;;6.13;2.50;;;12.90;1.00;;;;;;5056306;28;20400;-70
2022/10/20 10:49:44;;;;;;;2.77;2.57;;;13.10;1.00;;;;;;5080748;28;20953;-72
2022/10/20 10:52:32;;;;;;;2.00;1.90;;;13.20;1.00;;;;;;5075051;28;20387;-71
2022/10/20 10:55:15;;;;;;;3.00;2.17;;;13.30;1.00;;;;;;5075001;28;20359;-75
2022/10/20 10:58:10;;;;;;;2.27;2.07;;;13.30;1.00;;;;;;5075924;28;20415;-72
2022/10/20 11:01:02;;;;;;;2.47;2.30;;;13.30;1.00;;;;;;5076345;28;20386;-74
2022/10/20 11:03:58;;;;;;;2.80;2.30;;;13.40;1.00;;;;;;5074548;28;20440;-70
2022/10/20 11:06:30;;;;;;;3.87;2.20;;;13.30;1.00;;;;;;5074784;28;20785;-71
2022/10/20 11:09:05;;;;;;;3.77;2.00;;;13.30;1.00;;;;;;5076003;28;20388;-74
2022/10/20 11:11:36;;;;;;;4.13;2.30;;;13.30;1.00;;;;;;5075854;28;20390;-72
2022/10/20 11:14:33;;;;;;;2.30;2.10;;;13.40;1.00;;;;;;5074344;28;20916;-71
2022/10/20 11:17:23;;;;;;;2.27;2.07;;;13.40;1.00;;;;;;5074581;28;20452;-71
2022/10/20 11:20:17;;;;;;;2.47;2.27;;;13.50;1.00;;;;;;5055805;28;20420;-70
2022/10/20 11:22:46;;;;;;;1.73;1.63;;;13.50;1.00;;;;;;5055844;28;20402;-69
2022/10/20 11:25:18;;;;;;;2.20;2.00;;;13.50;1.00;;;;;;5054762;28;20470;-70
2022/10/20 11:27:43;;;;;;;2.57;2.37;;;13.60;1.00;;;;;;5054634;28;20410;-71
2022/10/20 11:30:21;;;;;;;2.63;2.37;;;13.80;1.00;;;;;;5086434;28;20428;-72
2022/10/20 11:32:46;;;;;;;2.10;1.90;;;13.90;1.00;;;;;;5073897;28;20177;-72
2022/10/20 11:35:21;;;;;;;3.43;2.57;;;14.00;1.00;;;;;;5074515;28;20435;-73
2022/10/20 11:38:35;;;;;;;2.27;2.10;;;14.00;1.00;;;;;;5075416;28;20205;-69
2022/10/20 11:41:24;;;;;;;2.40;2.20;;;14.00;1.00;;;;;;5041259;28;20873;-72
2022/10/20 11:44:17;;;;;;;2.60;1.80;;;13.90;1.00;;;;;;5063221;28;20409;-70
2022/10/20 11:46:47;;;;;;;2.63;1.87;;;13.90;1.00;;;;;;5066367;28;20445;-71
2022/10/20 11:49:13;;;;;;;2.17;1.87;;;13.80;1.00;;;;;;5055174;28;20401;-71
2022/10/20 11:52:09;;;;;;;3.00;2.70;;;13.80;1.00;;;;;;5054401;28;20736;-70
2022/10/20 11:54:41;;;;;;;15.17;2.40;;;13.90;1.00;;;;;;5054334;28;20616;-72
2022/10/20 11:57:31;;;;;;;11.87;2.77;;;14.00;1.00;;;;;;5054919;28;20449;-71
2022/10/20 12:00:10;;;;;;;3.17;2.40;;;14.10;1.00;;;;;;5065578;28;20431;-70
2022/10/20 12:02:57;;;;;;;5.93;2.87;;;14.10;1.00;;;;;;5074988;28;20423;-73
2022/10/20 12:05:35;;;;;;;3.53;1.97;;;14.10;1.00;;;;;;5073878;28;20417;-71
2022/10/20 12:08:31;;;;;;;11.40;2.47;;;14.10;1.00;;;;;;5055134;28;20450;-75
2022/10/20 12:11:12;;;;;;;2.57;2.37;;;14.10;1.00;;;;;;5054582;28;20401;-71
2022/10/20 12:14:12;;;;;;;2.80;2.60;;;14.10;1.00;;;;;;5053889;28;20393;-75
2022/10/20 12:16:53;;;;;;;5.77;2.97;;;14.00;1.00;;;;;;5054663;28;20445;-72
2022/10/20 12:19:24;;;;;;;3.43;2.20;;;14.10;1.00;;;;;;5054728;28;20368;-73
2022/10/20 12:21:59;;;;;;;6.07;2.90;;;14.30;1.00;;;;;;5054449;28;20777;-71
2022/10/20 12:24:34;;;;;;;3.10;2.50;;;14.40;1.00;;;;;;5053786;28;20393;-70
2022/10/20 12:27:16;;;;;;;3.83;2.80;;;14.60;1.00;;;;;;5054044;28;20961;-71
2022/10/20 12:29:42;;;;;;;2.83;2.63;;;14.60;1.00;;;;;;5054522;28;20402;-71
2022/10/20 12:32:52;;;;;;;3.83;2.40;;;14.60;1.00;;;;;;5055263;28;20435;-74
2022/10/20 12:35:17;;;;;;;2.83;2.60;;;14.60;1.00;;;;;;5031373;28;20218;-70
2022/10/20 12:38:03;;;;;;;2.03;1.93;;;14.80;1.00;;;;;;5050995;28;20953;-72
2022/10/20 12:40:31;;;;;;;2.50;2.30;;;15.00;1.00;;;;;;5054406;28;20250;-70
2022/10/20 12:42:57;;;;;;;2.60;1.90;;;15.30;1.00;;;;;;5054146;28;20401;-71
2022/10/20 12:45:38;;;;;;;3.83;2.10;;;15.40;1.00;;;;;;5052626;28;20467;-72
2022/10/20 12:48:06;;;;;;;5.17;2.90;;;15.40;1.00;;;;;;5054171;28;20437;-69
2022/10/20 12:50:44;;;;;;;2.63;2.43;;;15.40;1.00;;;;;;5054318;28;20459;-71
2022/10/20 12:53:15;;;;;;;2.70;2.07;;;15.30;1.00;;;;;;5053754;28;20886;-71
2022/10/20 12:55:52;;;;;;;5.00;2.30;;;15.60;1.00;;;;;;5052910;28;20471;-71
2022/10/20 12:58:18;;;;;;;2.10;1.90;;;16.10;1.00;;;;;;5052649;28;20456;-71
2022/10/20 13:00:46;;;;;;;2.33;2.13;;;16.00;1.00;;;;;;5053461;28;20770;-71
2022/10/20 13:03:30;;;;;;;10.23;3.33;;;15.70;1.00;;;;;;5053677;28;20701;-70
2022/10/20 13:06:00;;;;;;;4.70;2.00;;;15.40;1.00;;;;;;5053005;28;20487;-72
2022/10/20 13:08:30;;;;;;;5.60;2.80;;;15.20;1.00;;;;;;5069339;28;20511;-71
2022/10/20 13:11:16;;;;;;;3.07;2.60;;;15.00;1.00;;;;;;5065847;28;20471;-71
2022/10/20 13:13:56;;;;;;;5.83;2.70;;;14.80;1.00;;;;;;5072858;28;20412;-73
2022/10/20 13:16:22;;;;;;;2.13;1.93;;;14.60;1.00;;;;;;5073556;28;20478;-71